Meteorología y climatología de Navarra
Datos de la estación - Meteo Navarra

Estación de Goizueta GN

Altitud 142 m.


Datos desde el 12/09/2019 hasta el 13/09/2019 en horario solar
Los datos son PROVISIONALES

Anterior Página 1 de 1 Siguiente Descargar: Formato para Excel 2000 o superior   Formato csv   Formato para OpenOffice Calc
Fecha Temperatura Humedad relativa Radiación global Insolación Precipitación Vel. viento 10 m Vel. viento 10 m Dir. viento 10 m
ºC % W/m² s l/m² m/s km/h º
12/09/2019 0:00 11.1 99 - - - - 0.0 - - - - - -
12/09/2019 0:10 10.9 99 - - - - 0.0 - - - - - -
12/09/2019 0:20 10.8 99 - - - - 0.0 - - - - - -
12/09/2019 0:30 10.7 99 - - - - 0.0 - - - - - -
12/09/2019 0:40 10.6 99 - - - - 0.0 - - - - - -
12/09/2019 0:50 10.4 99 - - - - 0.0 - - - - - -
12/09/2019 1:00 10.4 99 - - - - 0.0 - - - - - -
12/09/2019 1:10 10.3 99 - - - - 0.0 - - - - - -
12/09/2019 1:20 10.2 99 - - - - 0.0 - - - - - -
12/09/2019 1:30 10.2 99 - - - - 0.0 - - - - - -
12/09/2019 1:40 10.2 99 - - - - 0.0 - - - - - -
12/09/2019 1:50 10.0 99 - - - - 0.0 - - - - - -
12/09/2019 2:00 9.9 99 - - - - 0.0 - - - - - -
12/09/2019 2:10 9.8 99 - - - - 0.0 - - - - - -
12/09/2019 2:20 9.7 99 - - - - 0.0 - - - - - -
12/09/2019 2:30 9.7 99 - - - - 0.0 - - - - - -
12/09/2019 2:40 9.8 99 - - - - 0.0 - - - - - -
12/09/2019 2:50 9.7 99 - - - - 0.0 - - - - - -
12/09/2019 3:00 9.9 99 - - - - 0.0 - - - - - -
12/09/2019 3:10 10.0 99 - - - - 0.0 - - - - - -
12/09/2019 3:20 10.1 100 - - - - 0.0 - - - - - -
12/09/2019 3:30 10.3 100 - - - - 0.0 - - - - - -
12/09/2019 3:40 10.3 100 - - - - 0.0 - - - - - -
12/09/2019 3:50 10.3 99 - - - - 0.0 - - - - - -
12/09/2019 4:00 10.3 100 - - - - 0.0 - - - - - -
12/09/2019 4:10 10.4 100 - - - - 0.0 - - - - - -
12/09/2019 4:20 10.3 100 - - - - 0.0 - - - - - -
12/09/2019 4:30 10.4 100 - - - - 0.0 - - - - - -
12/09/2019 4:40 10.4 100 - - - - 0.0 - - - - - -
12/09/2019 4:50 10.5 100 - - - - 0.0 - - - - - -
12/09/2019 5:00 10.5 100 - - - - 0.0 - - - - - -
12/09/2019 5:10 10.4 100 - - - - 0.0 - - - - - -
12/09/2019 5:20 10.0 99 - - - - 0.0 - - - - - -
12/09/2019 5:30 9.8 99 - - - - 0.0 - - - - - -
12/09/2019 5:40 9.5 99 - - - - 0.0 - - - - - -
12/09/2019 5:50 9.3 99 - - - - 0.0 - - - - - -
12/09/2019 6:00 9.4 99 - - - - 0.0 - - - - - -
12/09/2019 6:10 9.3 99 - - - - 0.0 - - - - - -
12/09/2019 6:20 9.4 100 - - - - 0.0 - - - - - -
12/09/2019 6:30 9.3 100 - - - - 0.0 - - - - - -
12/09/2019 6:40 9.4 100 - - - - 0.0 - - - - - -
12/09/2019 6:50 9.4 100 - - - - 0.0 - - - - - -
12/09/2019 7:00 9.5 100 - - - - 0.0 - - - - - -
12/09/2019 7:10 9.6 100 - - - - 0.0 - - - - - -
12/09/2019 7:20 9.7 100 - - - - 0.0 - - - - - -
12/09/2019 7:30 9.8 100 - - - - 0.0 - - - - - -
12/09/2019 7:40 10.1 100 - - - - 0.0 - - - - - -
12/09/2019 7:50 10.8 100 - - - - 0.0 - - - - - -
12/09/2019 8:00 11.9 100 - - - - 0.0 - - - - - -
12/09/2019 8:10 12.5 99 - - - - 0.0 - - - - - -
12/09/2019 8:20 13.2 97 - - - - 0.0 - - - - - -
12/09/2019 8:30 14.4 90 - - - - 0.0 - - - - - -
12/09/2019 8:40 15.2 87 - - - - 0.0 - - - - - -
12/09/2019 8:50 16.2 85 - - - - 0.0 - - - - - -
12/09/2019 9:00 16.6 81 - - - - 0.0 - - - - - -
12/09/2019 9:10 17.2 77 - - - - 0.0 - - - - - -
12/09/2019 9:20 17.8 74 - - - - 0.0 - - - - - -
12/09/2019 9:30 18.2 75 - - - - 0.0 - - - - - -
12/09/2019 9:40 18.4 72 - - - - 0.0 - - - - - -
12/09/2019 9:50 18.6 72 - - - - 0.0 - - - - - -
12/09/2019 10:00 18.9 72 - - - - 0.0 - - - - - -
12/09/2019 10:10 19.3 70 - - - - 0.0 - - - - - -
12/09/2019 10:20 19.5 70 - - - - 0.0 - - - - - -
12/09/2019 10:30 19.7 68 - - - - 0.0 - - - - - -
12/09/2019 10:40 19.8 68 - - - - 0.0 - - - - - -
12/09/2019 10:50 19.9 68 - - - - 0.0 - - - - - -
12/09/2019 11:00 20.3 68 - - - - 0.0 - - - - - -
12/09/2019 11:10 20.4 65 - - - - 0.0 - - - - - -
12/09/2019 11:20 20.6 66 - - - - 0.0 - - - - - -
12/09/2019 11:30 20.7 64 - - - - 0.0 - - - - - -
12/09/2019 11:40 20.9 63 - - - - 0.0 - - - - - -
12/09/2019 11:50 21.1 63 - - - - 0.0 - - - - - -
12/09/2019 12:00 21.2 63 - - - - 0.0 - - - - - -
12/09/2019 12:10 21.6 64 - - - - 0.0 - - - - - -
12/09/2019 12:20 21.7 64 - - - - 0.0 - - - - - -
12/09/2019 12:30 21.9 62 - - - - 0.0 - - - - - -
12/09/2019 12:40 22.0 62 - - - - 0.0 - - - - - -
12/09/2019 12:50 22.0 62 - - - - 0.0 - - - - - -
12/09/2019 13:00 22.1 62 - - - - 0.0 - - - - - -
12/09/2019 13:10 22.2 63 - - - - 0.0 - - - - - -
12/09/2019 13:20 22.4 61 - - - - 0.0 - - - - - -
12/09/2019 13:30 22.8 61 - - - - 0.0 - - - - - -
12/09/2019 13:40 23.1 60 - - - - 0.0 - - - - - -
12/09/2019 13:50 23.0 60 - - - - 0.0 - - - - - -
12/09/2019 14:00 22.9 62 - - - - 0.0 - - - - - -
12/09/2019 14:10 23.0 62 - - - - 0.0 - - - - - -
12/09/2019 14:20 22.9 63 - - - - 0.0 - - - - - -
12/09/2019 14:30 22.7 64 - - - - 0.0 - - - - - -
12/09/2019 14:40 22.4 65 - - - - 0.0 - - - - - -
12/09/2019 14:50 22.7 65 - - - - 0.0 - - - - - -
12/09/2019 15:00 22.7 65 - - - - 0.0 - - - - - -
12/09/2019 15:10 22.9 64 - - - - 0.0 - - - - - -
12/09/2019 15:20 23.2 64 - - - - 0.0 - - - - - -
12/09/2019 15:30 23.1 65 - - - - 0.0 - - - - - -
12/09/2019 15:40 22.7 66 - - - - 0.0 - - - - - -
12/09/2019 15:50 22.6 68 - - - - 0.0 - - - - - -
12/09/2019 16:00 22.4 68 - - - - 0.0 - - - - - -
12/09/2019 16:10 22.1 70 - - - - 0.0 - - - - - -
12/09/2019 16:20 22.1 71 - - - - 0.0 - - - - - -
12/09/2019 16:30 21.4 74 - - - - 0.0 - - - - - -
12/09/2019 16:40 20.9 76 - - - - 0.0 - - - - - -
12/09/2019 16:50 20.2 79 - - - - 0.0 - - - - - -
12/09/2019 17:00 19.7 83 - - - - 0.0 - - - - - -
12/09/2019 17:10 19.2 86 - - - - 0.0 - - - - - -
12/09/2019 17:20 18.8 87 - - - - 0.0 - - - - - -
12/09/2019 17:30 18.4 90 - - - - 0.0 - - - - - -
12/09/2019 17:40 18.0 91 - - - - 0.0 - - - - - -
12/09/2019 17:50 17.6 92 - - - - 0.0 - - - - - -
12/09/2019 18:00 17.3 93 - - - - 0.0 - - - - - -
12/09/2019 18:10 16.9 94 - - - - 0.0 - - - - - -
12/09/2019 18:20 16.5 94 - - - - 0.0 - - - - - -
12/09/2019 18:30 16.3 95 - - - - 0.0 - - - - - -
12/09/2019 18:40 16.0 95 - - - - 0.0 - - - - - -
12/09/2019 18:50 15.7 96 - - - - 0.0 - - - - - -
12/09/2019 19:00 15.3 96 - - - - 0.0 - - - - - -
12/09/2019 19:10 15.0 96 - - - - 0.0 - - - - - -
12/09/2019 19:20 14.8 97 - - - - 0.0 - - - - - -
12/09/2019 19:30 14.5 97 - - - - 0.0 - - - - - -
12/09/2019 19:40 14.3 97 - - - - 0.0 - - - - - -
12/09/2019 19:50 14.0 97 - - - - 0.0 - - - - - -
12/09/2019 20:00 13.9 97 - - - - 0.0 - - - - - -
12/09/2019 20:10 13.7 98 - - - - 0.0 - - - - - -
12/09/2019 20:20 13.5 98 - - - - 0.0 - - - - - -
12/09/2019 20:30 13.4 98 - - - - 0.0 - - - - - -
12/09/2019 20:40 13.2 98 - - - - 0.0 - - - - - -
12/09/2019 20:50 13.2 98 - - - - 0.0 - - - - - -
12/09/2019 21:00 13.0 98 - - - - 0.0 - - - - - -
12/09/2019 21:10 12.8 98 - - - - 0.0 - - - - - -
12/09/2019 21:20 12.6 98 - - - - 0.0 - - - - - -
12/09/2019 21:30 12.6 98 - - - - 0.0 - - - - - -
12/09/2019 21:40 12.4 98 - - - - 0.0 - - - - - -
12/09/2019 21:50 12.3 98 - - - - 0.0 - - - - - -
12/09/2019 22:00 12.2 99 - - - - 0.0 - - - - - -
12/09/2019 22:10 12.1 99 - - - - 0.0 - - - - - -
12/09/2019 22:20 12.1 99 - - - - 0.0 - - - - - -
12/09/2019 22:30 12.0 99 - - - - 0.0 - - - - - -
12/09/2019 22:40 11.8 99 - - - - 0.0 - - - - - -
12/09/2019 22:50 11.7 99 - - - - 0.0 - - - - - -
12/09/2019 23:00 11.6 99 - - - - 0.0 - - - - - -
12/09/2019 23:10 11.5 99 - - - - 0.0 - - - - - -
12/09/2019 23:20 11.4 99 - - - - 0.0 - - - - - -
12/09/2019 23:30 11.3 99 - - - - 0.0 - - - - - -
12/09/2019 23:40 11.3 99 - - - - 0.0 - - - - - -
12/09/2019 23:50 11.3 99 - - - - 0.0 - - - - - -
Anterior Página 1 de 1 Siguiente

NOTA: Tipo de datos según el color:
   - Valores diarios o 10 minutos correctos
   - Valores diarios calculados a partir de un número de datos 10 minutos menor que 144 y mayor que 120, o de un número de datos semihorarios menor que 48 y mayor que 40 (caso de las estaciones de Riegos de Navarra y del MARM)
   - Valores diez minutos estimados


Contacto        Enlaces        Aviso legal